createdAt,value
2022-12-31T00:00:15.029Z,98057.66
2022-12-31T00:02:42.225Z,98052.22
2022-12-31T00:05:09.879Z,98063.00
2022-12-31T00:10:04.901Z,98061.56
2022-12-31T00:12:31.954Z,98063.78
2022-12-31T00:14:58.936Z,98060.13
2022-12-31T00:17:25.962Z,98055.94
2022-12-31T00:19:52.907Z,98066.66
2022-12-31T00:22:19.871Z,98071.97
2022-12-31T00:24:47.312Z,98063.13
2022-12-31T00:27:14.451Z,98067.88
2022-12-31T00:29:41.429Z,98084.03
2022-12-31T00:32:08.387Z,98080.56
2022-12-31T00:34:35.664Z,98087.84
2022-12-31T00:37:02.665Z,98093.63
2022-12-31T00:39:29.642Z,98085.59
2022-12-31T00:41:56.912Z,98091.19
2022-12-31T00:44:23.888Z,98105.09
2022-12-31T00:46:50.859Z,98099.09
2022-12-31T00:49:17.912Z,98101.75
2022-12-31T00:51:46.695Z,98099.09
2022-12-31T00:54:14.195Z,98103.38
2022-12-31T00:56:41.623Z,98109.41
2022-12-31T00:59:08.982Z,98115.16
2022-12-31T01:01:39.521Z,98115.59
2022-12-31T01:04:16.212Z,98115.81
2022-12-31T01:06:44.178Z,98111.81
2022-12-31T01:09:13.212Z,98132.38
2022-12-31T01:11:41.872Z,98131.63
2022-12-31T01:14:18.258Z,98128.81
2022-12-31T01:16:48.152Z,98140.59
2022-12-31T01:19:21.669Z,98136.81
2022-12-31T01:21:49.974Z,98137.94
2022-12-31T01:24:17.955Z,98141.81
2022-12-31T01:26:45.687Z,98144.16
2022-12-31T01:29:14.307Z,98147.00
2022-12-31T01:31:42.052Z,98164.00
2022-12-31T01:34:09.608Z,98166.56
2022-12-31T01:36:38.395Z,98176.31
2022-12-31T01:39:07.180Z,98158.75
2022-12-31T01:41:43.662Z,98165.47
2022-12-31T01:44:14.014Z,98172.25
2022-12-31T01:46:43.231Z,98181.38
2022-12-31T01:49:16.429Z,98189.22
2022-12-31T01:51:47.081Z,98187.81
2022-12-31T01:54:16.162Z,98185.47
2022-12-31T01:56:44.133Z,98171.09
2022-12-31T01:59:11.986Z,98178.53
2022-12-31T02:01:39.687Z,98186.00
2022-12-31T02:04:11.182Z,98187.56
2022-12-31T02:07:02.672Z,98193.13
2022-12-31T02:09:30.600Z,98186.28
2022-12-31T02:12:00.642Z,98178.78
2022-12-31T02:14:49.358Z,98181.47
2022-12-31T02:17:28.366Z,98187.94
2022-12-31T02:20:07.931Z,98179.28
2022-12-31T02:22:41.143Z,98178.19
2022-12-31T02:25:36.141Z,98186.03
2022-12-31T02:28:42.430Z,98184.63
2022-12-31T02:31:17.210Z,98181.69
2022-12-31T02:34:01.769Z,98179.59
2022-12-31T02:36:35.980Z,98186.44
2022-12-31T02:39:04.963Z,98181.97
2022-12-31T02:41:49.899Z,98192.47
2022-12-31T02:44:27.603Z,98186.16
2022-12-31T02:47:09.409Z,98181.25
2022-12-31T02:50:01.350Z,98170.78
2022-12-31T02:53:05.789Z,98178.16
2022-12-31T02:55:49.276Z,98179.28
2022-12-31T02:59:02.732Z,98170.38
2022-12-31T03:02:02.224Z,98170.19
2022-12-31T03:04:32.044Z,98177.88
2022-12-31T03:07:08.477Z,98173.56
2022-12-31T03:09:36.966Z,98171.97
2022-12-31T03:12:26.255Z,98181.59
2022-12-31T03:14:53.767Z,98181.47
2022-12-31T03:17:21.142Z,98184.81
2022-12-31T03:20:06.717Z,98185.34
2022-12-31T03:22:39.528Z,98184.47
2022-12-31T03:25:30.742Z,98196.25
2022-12-31T03:27:58.254Z,98199.06
2022-12-31T03:30:25.848Z,98203.03
2022-12-31T03:32:56.218Z,98195.53
2022-12-31T03:35:25.338Z,98207.66
2022-12-31T03:37:53.347Z,98189.03
2022-12-31T03:40:22.852Z,98200.66
2022-12-31T03:42:50.900Z,98205.72
2022-12-31T03:45:18.530Z,98204.38
2022-12-31T03:47:45.741Z,98219.03
2022-12-31T03:50:15.660Z,98227.91
2022-12-31T03:52:43.315Z,98234.06
2022-12-31T03:55:11.689Z,98220.34
2022-12-31T03:57:38.892Z,98226.94
2022-12-31T04:00:10.657Z,98210.47
2022-12-31T04:02:37.703Z,98214.47
2022-12-31T04:05:05.581Z,98219.44
2022-12-31T04:07:32.610Z,98217.03
2022-12-31T04:09:59.659Z,98219.13
2022-12-31T04:12:26.639Z,98221.91
2022-12-31T04:14:53.550Z,98221.91
2022-12-31T04:17:20.506Z,98222.03
2022-12-31T04:19:47.581Z,98234.97
2022-12-31T04:22:14.508Z,98233.22
2022-12-31T04:24:43.147Z,98233.75
2022-12-31T04:27:12.048Z,98229.44
2022-12-31T04:29:39.463Z,98227.78
2022-12-31T04:32:07.668Z,98223.88
2022-12-31T04:34:35.370Z,98216.34
2022-12-31T04:37:02.943Z,98228.09
2022-12-31T04:39:30.007Z,98224.75
2022-12-31T04:41:57.061Z,98234.09
2022-12-31T04:44:24.036Z,98235.13
2022-12-31T04:46:51.851Z,98242.28
2022-12-31T04:49:18.824Z,98240.78
2022-12-31T04:51:45.907Z,98240.38
2022-12-31T04:54:12.900Z,98251.44
2022-12-31T04:56:39.871Z,98250.72
2022-12-31T04:59:07.342Z,98263.97
2022-12-31T05:01:34.597Z,98261.59
2022-12-31T05:04:01.643Z,98273.56
2022-12-31T05:06:28.588Z,98270.91
2022-12-31T05:08:55.814Z,98264.13
2022-12-31T05:11:22.795Z,98273.94
2022-12-31T05:13:49.774Z,98266.63
2022-12-31T05:16:16.902Z,98275.16
2022-12-31T05:18:43.950Z,98280.78
2022-12-31T05:21:20.054Z,98284.69
2022-12-31T05:23:48.206Z,98280.56
2022-12-31T05:26:16.553Z,98289.38
2022-12-31T05:28:43.551Z,98299.44
2022-12-31T05:31:10.865Z,98285.06
2022-12-31T05:33:37.847Z,98292.50
2022-12-31T05:36:05.371Z,98298.38
2022-12-31T05:38:33.576Z,98293.81
2022-12-31T05:41:07.286Z,98308.56
2022-12-31T05:43:35.001Z,98282.38
2022-12-31T05:46:03.972Z,98300.72
2022-12-31T05:48:31.517Z,98291.84
2022-12-31T05:50:58.961Z,98296.38
2022-12-31T05:53:25.943Z,98304.09
2022-12-31T05:55:52.936Z,98301.41
2022-12-31T05:58:19.934Z,98295.47
2022-12-31T06:00:46.864Z,98300.72
2022-12-31T06:03:13.971Z,98301.94
2022-12-31T06:05:44.019Z,98289.84
2022-12-31T06:08:12.119Z,98289.38
2022-12-31T06:10:40.265Z,98301.53
2022-12-31T06:13:07.787Z,98310.16
2022-12-31T06:15:40.476Z,98302.09
2022-12-31T06:18:08.080Z,98306.72
2022-12-31T06:20:38.655Z,98315.34
2022-12-31T06:23:06.056Z,98319.91
2022-12-31T06:25:35.395Z,98323.41
2022-12-31T06:28:03.119Z,98327.22
2022-12-31T06:30:30.014Z,98324.16
2022-12-31T06:32:57.036Z,98330.84
2022-12-31T06:35:24.301Z,98326.81
2022-12-31T06:37:52.382Z,98335.28
2022-12-31T06:40:19.273Z,98348.91
2022-12-31T06:42:46.255Z,98340.53
2022-12-31T06:45:13.216Z,98334.97
2022-12-31T06:47:40.355Z,98331.97
2022-12-31T06:50:08.054Z,98334.06
2022-12-31T06:52:35.104Z,98345.59
2022-12-31T06:55:02.627Z,98337.38
2022-12-31T06:57:30.034Z,98334.13
2022-12-31T06:59:59.508Z,98345.38
2022-12-31T07:02:49.741Z,98340.91
2022-12-31T07:06:02.755Z,98336.47
2022-12-31T07:09:32.332Z,98338.25
2022-12-31T07:12:26.070Z,98327.28
2022-12-31T07:14:59.114Z,98346.53
2022-12-31T07:18:01.561Z,98338.91
2022-12-31T07:20:29.263Z,98345.75
2022-12-31T07:22:58.177Z,98351.47
2022-12-31T07:25:25.736Z,98356.13
2022-12-31T07:28:10.346Z,98359.97
2022-12-31T07:30:54.323Z,98356.03
2022-12-31T07:33:30.592Z,98356.59
2022-12-31T07:36:28.468Z,98353.16
2022-12-31T07:39:11.681Z,98359.69
2022-12-31T07:41:57.042Z,98351.91
2022-12-31T07:44:36.394Z,98357.75
2022-12-31T07:47:05.958Z,98358.66
2022-12-31T07:49:43.612Z,98380.16
2022-12-31T07:52:10.803Z,98367.53
2022-12-31T07:54:37.791Z,98360.41
2022-12-31T07:57:05.402Z,98360.41
2022-12-31T07:59:50.835Z,98368.41
2022-12-31T08:02:53.876Z,98374.34
2022-12-31T08:05:47.301Z,98369.94
2022-12-31T08:08:35.338Z,98371.69
2022-12-31T08:11:11.855Z,98381.97
2022-12-31T08:13:42.020Z,98387.91
2022-12-31T08:16:13.600Z,98399.84
2022-12-31T08:18:41.572Z,98406.22
2022-12-31T08:21:34.559Z,98397.38
2022-12-31T08:24:13.808Z,98406.56
2022-12-31T08:27:05.488Z,98406.88
2022-12-31T08:29:54.777Z,98418.78
2022-12-31T08:32:31.267Z,98406.13
2022-12-31T08:35:32.011Z,98409.16
2022-12-31T08:38:17.467Z,98406.47
2022-12-31T08:41:09.099Z,98412.00
2022-12-31T08:43:50.361Z,98417.34
2022-12-31T08:47:10.763Z,98408.53
2022-12-31T08:49:38.049Z,98428.03
2022-12-31T08:52:15.459Z,98411.88
2022-12-31T08:54:43.022Z,98411.69
2022-12-31T08:57:20.855Z,98427.25
2022-12-31T09:00:04.487Z,98437.91
2022-12-31T09:03:03.645Z,98452.78
2022-12-31T09:05:39.377Z,98454.63
2022-12-31T09:09:09.000Z,98461.13
2022-12-31T09:12:03.209Z,98458.94
2022-12-31T09:15:05.165Z,98468.19
2022-12-31T09:17:48.134Z,98458.69
2022-12-31T09:20:42.377Z,98459.69
2022-12-31T09:23:12.327Z,98461.84
2022-12-31T09:26:01.119Z,98457.19
2022-12-31T09:28:42.855Z,98459.25
2022-12-31T09:32:12.690Z,98458.00
2022-12-31T09:35:07.347Z,98461.22
2022-12-31T09:38:11.708Z,98450.81
2022-12-31T09:40:55.974Z,98458.88
2022-12-31T09:43:43.512Z,98470.22
2022-12-31T09:46:49.098Z,98461.88
2022-12-31T09:49:34.149Z,98464.06
2022-12-31T09:52:30.473Z,98470.22
2022-12-31T09:55:12.639Z,98475.25
2022-12-31T09:58:16.324Z,98473.72
2022-12-31T10:01:37.657Z,98477.94
2022-12-31T10:04:10.251Z,98474.41
2022-12-31T10:07:01.182Z,98471.38
2022-12-31T10:09:41.311Z,98471.91
2022-12-31T10:12:25.027Z,98468.50
2022-12-31T10:15:14.031Z,98473.97
2022-12-31T10:18:29.190Z,98465.72
2022-12-31T10:21:13.073Z,98460.97
2022-12-31T10:24:20.856Z,98470.13
2022-12-31T10:27:05.026Z,98469.59
2022-12-31T10:30:12.267Z,98453.44
2022-12-31T10:33:41.938Z,98459.94
2022-12-31T10:36:40.497Z,98446.47
2022-12-31T10:39:38.688Z,98447.25
2022-12-31T10:42:52.345Z,98461.00
2022-12-31T10:45:45.110Z,98457.75
2022-12-31T10:48:24.677Z,98449.41
2022-12-31T10:51:10.023Z,98447.00
2022-12-31T10:54:04.525Z,98454.81
2022-12-31T10:56:56.140Z,98435.31
2022-12-31T10:59:31.669Z,98443.78
2022-12-31T11:02:13.878Z,98435.59
2022-12-31T11:05:02.816Z,98438.19
2022-12-31T11:07:51.878Z,98432.91
2022-12-31T11:10:49.757Z,98432.25
2022-12-31T11:13:49.008Z,98434.75
2022-12-31T11:16:43.751Z,98425.19
2022-12-31T11:19:38.620Z,98426.66
2022-12-31T11:22:13.004Z,98426.09
2022-12-31T11:25:15.903Z,98424.94
2022-12-31T11:28:08.530Z,98429.03
2022-12-31T11:30:53.937Z,98432.47
2022-12-31T11:34:01.380Z,98424.84
2022-12-31T11:37:21.384Z,98426.09
2022-12-31T11:40:22.482Z,98428.31
2022-12-31T11:43:02.316Z,98433.00
2022-12-31T11:45:59.076Z,98428.19
2022-12-31T11:49:06.578Z,98410.09
2022-12-31T11:52:07.881Z,98419.47
2022-12-31T11:54:57.086Z,98414.84
2022-12-31T11:57:38.466Z,98408.34
2022-12-31T12:00:25.962Z,98415.66
2022-12-31T12:02:57.787Z,98422.88
2022-12-31T12:05:26.299Z,98410.84
2022-12-31T12:07:54.191Z,98404.75
2022-12-31T12:11:18.827Z,98413.34
2022-12-31T12:13:46.568Z,98400.59
2022-12-31T12:16:14.671Z,98401.75
2022-12-31T12:19:07.525Z,98402.06
2022-12-31T12:21:34.713Z,98392.00
2022-12-31T12:24:06.615Z,98389.03
2022-12-31T12:26:37.888Z,98391.31
2022-12-31T12:29:25.621Z,98394.72
2022-12-31T12:32:19.520Z,98394.66
2022-12-31T12:34:49.899Z,98385.63
2022-12-31T12:37:36.944Z,98382.91
2022-12-31T12:40:20.279Z,98385.84
2022-12-31T12:42:52.923Z,98395.47
2022-12-31T12:45:35.913Z,98387.41
2022-12-31T12:48:27.714Z,98389.81
2022-12-31T12:50:54.883Z,98394.09
2022-12-31T12:53:36.781Z,98388.69
2022-12-31T12:56:55.938Z,98382.69
2022-12-31T12:59:34.795Z,98389.00
2022-12-31T13:02:16.882Z,98377.03
2022-12-31T13:05:25.963Z,98380.44
2022-12-31T13:08:16.109Z,98377.97
2022-12-31T13:11:22.799Z,98367.50
2022-12-31T13:14:27.596Z,98367.78
2022-12-31T13:17:35.730Z,98373.13
2022-12-31T13:20:25.858Z,98364.06
2022-12-31T13:23:01.578Z,98360.28
2022-12-31T13:25:46.294Z,98364.53
2022-12-31T13:28:16.721Z,98370.38
2022-12-31T13:31:08.739Z,98367.78
2022-12-31T13:33:48.186Z,98358.41
2022-12-31T13:36:17.573Z,98359.22
2022-12-31T13:38:51.090Z,98347.69
2022-12-31T13:41:41.909Z,98356.63
2022-12-31T13:44:14.490Z,98351.03
2022-12-31T13:46:49.207Z,98349.94
2022-12-31T13:49:24.683Z,98343.75
2022-12-31T13:52:14.599Z,98350.16
2022-12-31T13:54:58.714Z,98353.16
2022-12-31T13:57:52.260Z,98350.31
2022-12-31T14:00:27.562Z,98349.66
2022-12-31T14:03:19.776Z,98348.66
2022-12-31T14:05:58.781Z,98346.97
2022-12-31T14:08:25.891Z,98350.13
2022-12-31T14:10:58.790Z,98348.50
2022-12-31T14:13:42.498Z,98343.91
2022-12-31T14:17:21.428Z,98341.94
2022-12-31T14:20:17.385Z,98349.00
2022-12-31T14:23:25.123Z,98351.31
2022-12-31T14:25:59.982Z,98348.31
2022-12-31T14:28:38.344Z,98339.31
2022-12-31T14:31:48.453Z,98349.00
2022-12-31T14:34:30.178Z,98351.88
2022-12-31T14:37:12.915Z,98358.38
2022-12-31T14:40:18.469Z,98358.56
2022-12-31T14:43:33.221Z,98361.25
2022-12-31T14:46:36.366Z,98360.72
2022-12-31T14:49:50.225Z,98355.06
2022-12-31T14:52:31.653Z,98362.75
2022-12-31T14:55:22.311Z,98361.41
2022-12-31T15:00:39.473Z,98365.41
2022-12-31T15:03:13.857Z,98376.38
2022-12-31T15:06:15.208Z,98378.56
2022-12-31T15:09:32.891Z,98373.69
2022-12-31T15:12:59.800Z,98384.00
2022-12-31T15:15:35.394Z,98372.78
2022-12-31T15:18:26.576Z,98370.53
2022-12-31T15:21:23.893Z,98377.97
2022-12-31T15:23:50.936Z,98376.97
2022-12-31T15:26:26.081Z,98369.63
2022-12-31T15:29:08.700Z,98381.19
2022-12-31T15:31:47.161Z,98384.16
2022-12-31T15:34:40.676Z,98384.00
2022-12-31T15:37:35.926Z,98389.84
2022-12-31T15:40:24.886Z,98391.81
2022-12-31T15:43:27.795Z,98397.06
2022-12-31T15:45:56.716Z,98391.81
2022-12-31T15:48:55.493Z,98390.41
2022-12-31T15:51:49.065Z,98387.31
2022-12-31T15:54:43.643Z,98389.22
2022-12-31T15:57:19.977Z,98388.34
2022-12-31T15:59:47.637Z,98390.88
2022-12-31T16:02:25.974Z,98386.94
2022-12-31T16:04:54.908Z,98395.66
2022-12-31T16:07:23.739Z,98400.38
2022-12-31T16:09:56.298Z,98404.88
2022-12-31T16:12:32.788Z,98403.19
2022-12-31T16:15:01.728Z,98407.34
2022-12-31T16:17:33.919Z,98404.75
2022-12-31T16:20:20.320Z,98416.47
2022-12-31T16:22:53.159Z,98407.78
2022-12-31T16:25:37.032Z,98410.16
2022-12-31T16:28:04.597Z,98412.88
2022-12-31T16:30:35.694Z,98405.69
2022-12-31T16:33:05.878Z,98410.22
2022-12-31T16:35:39.054Z,98404.13
2022-12-31T16:38:16.557Z,98400.69
2022-12-31T16:41:03.371Z,98406.28
2022-12-31T16:43:40.436Z,98400.16
2022-12-31T16:46:31.010Z,98401.59
2022-12-31T16:49:16.045Z,98405.19
2022-12-31T16:51:43.522Z,98407.47
2022-12-31T16:54:28.289Z,98400.88
2022-12-31T16:56:56.255Z,98395.09
2022-12-31T16:59:30.550Z,98400.00
2022-12-31T17:02:06.622Z,98401.06
2022-12-31T17:04:33.764Z,98391.06
2022-12-31T17:07:31.569Z,98381.69
2022-12-31T17:10:04.352Z,98390.28
2022-12-31T17:12:52.745Z,98378.03
2022-12-31T17:15:27.063Z,98382.75
2022-12-31T17:17:58.178Z,98390.22
2022-12-31T17:20:29.535Z,98397.59
2022-12-31T17:23:11.557Z,98396.69
2022-12-31T17:25:38.846Z,98403.81
2022-12-31T17:28:21.057Z,98414.53
2022-12-31T17:30:48.484Z,98413.06
2022-12-31T17:33:21.302Z,98427.06
2022-12-31T17:35:54.602Z,98432.53
2022-12-31T17:38:21.518Z,98416.56
2022-12-31T17:40:53.597Z,98413.94
2022-12-31T17:43:23.454Z,98417.53
2022-12-31T17:45:52.859Z,98418.13
2022-12-31T17:48:20.601Z,98421.47
2022-12-31T17:50:59.400Z,98426.41
2022-12-31T17:53:26.952Z,98431.72
2022-12-31T17:55:57.056Z,98432.81
2022-12-31T17:58:42.581Z,98441.88
2022-12-31T18:01:11.669Z,98438.22
2022-12-31T18:03:38.695Z,98440.91
2022-12-31T18:06:07.375Z,98440.84
2022-12-31T18:08:36.085Z,98440.22
2022-12-31T18:11:03.624Z,98444.22
2022-12-31T18:13:31.023Z,98436.88
2022-12-31T18:15:58.113Z,98437.47
2022-12-31T18:18:32.620Z,98440.31
2022-12-31T18:21:16.119Z,98441.69
2022-12-31T18:23:46.265Z,98438.47
2022-12-31T18:26:19.709Z,98437.44
2022-12-31T18:28:47.316Z,98440.19
2022-12-31T18:31:22.249Z,98435.69
2022-12-31T18:33:51.763Z,98440.66
2022-12-31T18:36:21.226Z,98444.88
2022-12-31T18:38:48.634Z,98447.81
2022-12-31T18:41:29.534Z,98451.50
2022-12-31T18:43:57.046Z,98455.59
2022-12-31T18:46:25.408Z,98450.06
2022-12-31T18:48:52.399Z,98456.75
2022-12-31T18:51:31.336Z,98456.91
2022-12-31T18:54:00.665Z,98450.19
2022-12-31T18:56:28.314Z,98458.13
2022-12-31T18:58:55.678Z,98456.81
2022-12-31T19:01:43.380Z,98449.91
2022-12-31T19:04:21.379Z,98459.19
2022-12-31T19:06:53.837Z,98461.47
2022-12-31T19:09:44.553Z,98460.31
2022-12-31T19:12:13.176Z,98460.56
2022-12-31T19:14:40.201Z,98466.50
2022-12-31T19:19:34.645Z,98462.00
2022-12-31T19:22:02.664Z,98463.16
2022-12-31T19:24:29.890Z,98465.91
2022-12-31T19:26:57.263Z,98470.03
2022-12-31T19:29:28.503Z,98480.81
2022-12-31T19:31:55.574Z,98475.63
2022-12-31T19:34:22.534Z,98479.69
2022-12-31T19:36:49.675Z,98478.53
2022-12-31T19:39:20.329Z,98479.75
2022-12-31T19:41:56.505Z,98485.16
2022-12-31T19:44:26.012Z,98489.28
2022-12-31T19:46:53.092Z,98493.94
2022-12-31T19:49:20.073Z,98492.41
2022-12-31T19:51:47.004Z,98494.78
2022-12-31T19:54:14.124Z,98489.66
2022-12-31T19:56:41.474Z,98492.84
2022-12-31T19:59:10.614Z,98488.53
2022-12-31T20:01:38.471Z,98484.25
2022-12-31T20:04:05.506Z,98492.84
2022-12-31T20:06:32.889Z,98477.78
2022-12-31T20:09:00.241Z,98488.06
2022-12-31T20:11:27.667Z,98486.84
2022-12-31T20:13:55.055Z,98485.69
2022-12-31T20:16:26.742Z,98485.94
2022-12-31T20:18:54.425Z,98485.94
2022-12-31T20:21:25.578Z,98491.25
2022-12-31T20:23:53.516Z,98492.78
2022-12-31T20:26:22.315Z,98487.72
2022-12-31T20:28:50.727Z,98485.25
2022-12-31T20:31:24.517Z,98493.22
2022-12-31T20:33:54.130Z,98492.00
2022-12-31T20:36:21.733Z,98497.25
2022-12-31T20:38:49.399Z,98498.88
2022-12-31T20:41:19.564Z,98492.91
2022-12-31T20:43:47.232Z,98497.50
2022-12-31T20:46:18.978Z,98494.59
2022-12-31T20:48:46.926Z,98496.34
2022-12-31T20:51:15.589Z,98494.38
2022-12-31T20:53:52.548Z,98489.94
2022-12-31T20:56:19.547Z,98487.59
2022-12-31T20:58:46.911Z,98495.78
2022-12-31T21:01:15.653Z,98495.19
2022-12-31T21:06:33.474Z,98497.19
2022-12-31T21:09:02.816Z,98500.16
2022-12-31T21:11:48.777Z,98497.41
2022-12-31T21:14:16.227Z,98490.25
2022-12-31T21:16:43.545Z,98501.34
2022-12-31T21:19:10.968Z,98495.13
2022-12-31T21:21:38.164Z,98490.31
2022-12-31T21:24:05.651Z,98499.63
2022-12-31T21:26:33.012Z,98495.28
2022-12-31T21:29:00.453Z,98494.56
2022-12-31T21:31:27.456Z,98486.88
2022-12-31T21:33:54.855Z,98486.97
2022-12-31T21:36:22.243Z,98483.72
2022-12-31T21:38:49.685Z,98486.38
2022-12-31T21:41:35.941Z,98500.91
2022-12-31T21:44:03.484Z,98504.91
2022-12-31T21:46:30.797Z,98501.91
2022-12-31T21:48:59.583Z,98498.50
2022-12-31T21:51:27.818Z,98505.22
2022-12-31T21:53:54.937Z,98507.78
2022-12-31T21:56:22.581Z,98509.47
2022-12-31T21:59:15.239Z,98515.38
2022-12-31T22:02:01.424Z,98524.44
2022-12-31T22:05:01.047Z,98526.03
2022-12-31T22:07:16.087Z,98534.16
2022-12-31T22:09:43.067Z,98540.50
2022-12-31T22:12:10.223Z,98531.25
2022-12-31T22:14:37.182Z,98527.97
2022-12-31T22:17:04.130Z,98541.09
2022-12-31T22:19:31.062Z,98546.28
2022-12-31T22:21:57.975Z,98538.88
2022-12-31T22:24:24.902Z,98540.38
2022-12-31T22:26:55.481Z,98540.25
2022-12-31T22:29:23.593Z,98523.69
2022-12-31T22:31:50.557Z,98538.09
2022-12-31T22:34:18.016Z,98543.56
2022-12-31T22:36:45.326Z,98544.09
2022-12-31T22:39:44.448Z,98549.88
2022-12-31T22:42:03.657Z,98549.59
2022-12-31T22:44:30.653Z,98549.59
2022-12-31T22:46:57.645Z,98555.22
2022-12-31T22:49:25.787Z,98560.88
2022-12-31T22:51:57.536Z,98561.41
2022-12-31T22:54:26.337Z,98561.25
2022-12-31T22:56:53.705Z,98562.69
2022-12-31T22:59:20.703Z,98564.44
2022-12-31T23:01:47.904Z,98566.53
2022-12-31T23:04:15.222Z,98557.63
2022-12-31T23:06:44.984Z,98569.25
2022-12-31T23:09:33.724Z,98563.72
2022-12-31T23:12:01.682Z,98563.75
2022-12-31T23:14:46.773Z,98568.44
2022-12-31T23:17:36.621Z,98570.66
2022-12-31T23:20:25.212Z,98575.19
2022-12-31T23:23:08.762Z,98566.91
2022-12-31T23:25:42.781Z,98572.53
2022-12-31T23:28:14.949Z,98574.59
2022-12-31T23:30:43.293Z,98575.31
2022-12-31T23:33:17.909Z,98581.63
2022-12-31T23:35:45.764Z,98587.25
2022-12-31T23:38:13.628Z,98584.84
2022-12-31T23:40:41.011Z,98582.47
2022-12-31T23:43:21.643Z,98594.50
2022-12-31T23:45:52.703Z,98598.91
2022-12-31T23:48:20.007Z,98601.56
2022-12-31T23:50:53.621Z,98599.59
2022-12-31T23:53:22.366Z,98601.72
2022-12-31T23:55:49.494Z,98602.81
2022-12-31T23:58:16.799Z,98604.38
